createdAt,value
2017-10-15T00:01:18.096Z,21.77
2017-10-15T00:03:45.586Z,23.17
2017-10-15T00:06:13.144Z,21.08
2017-10-15T00:08:40.601Z,22.73
2017-10-15T00:11:08.176Z,21.42
2017-10-15T00:13:35.681Z,19.77
2017-10-15T00:16:03.140Z,21.20
2017-10-15T00:18:30.685Z,20.35
2017-10-15T00:20:58.160Z,20.65
2017-10-15T00:23:25.653Z,20.50
2017-10-15T00:25:53.104Z,20.20
2017-10-15T00:28:20.572Z,19.20
2017-10-15T00:30:48.032Z,19.73
2017-10-15T00:33:15.509Z,17.10
2017-10-15T00:35:43.729Z,15.88
2017-10-15T00:38:11.253Z,14.90
2017-10-15T00:40:38.723Z,13.68
2017-10-15T00:43:06.189Z,13.82
2017-10-15T00:45:33.643Z,14.70
2017-10-15T00:48:01.156Z,13.43
2017-10-15T00:50:28.685Z,12.73
2017-10-15T00:52:56.133Z,12.65
2017-10-15T00:55:23.630Z,12.63
2017-10-15T00:57:51.074Z,13.18
2017-10-15T01:00:18.644Z,13.20
2017-10-15T01:02:46.100Z,13.60
2017-10-15T01:05:13.629Z,12.70
2017-10-15T01:07:41.079Z,12.27
2017-10-15T01:10:08.587Z,13.32
2017-10-15T01:12:36.046Z,13.73
2017-10-15T01:15:03.773Z,13.77
2017-10-15T01:17:31.250Z,12.85
2017-10-15T01:19:58.796Z,13.15
2017-10-15T01:22:26.237Z,13.23
2017-10-15T01:24:53.757Z,15.57
2017-10-15T01:27:21.982Z,14.02
2017-10-15T01:29:49.458Z,13.35
2017-10-15T01:32:16.918Z,13.20
2017-10-15T01:34:44.506Z,13.55
2017-10-15T01:37:11.957Z,13.27
2017-10-15T01:39:39.411Z,13.45
2017-10-15T01:42:06.964Z,14.55
2017-10-15T01:44:34.602Z,12.37
2017-10-15T01:47:02.046Z,13.65
2017-10-15T01:49:29.541Z,12.20
2017-10-15T01:51:57.757Z,13.48
2017-10-15T01:54:25.336Z,13.02
2017-10-15T01:56:52.834Z,12.40
2017-10-15T01:59:20.354Z,12.32
2017-10-15T02:01:48.183Z,13.25
2017-10-15T02:04:15.723Z,12.80
2017-10-15T02:06:43.182Z,13.05
2017-10-15T02:09:10.642Z,12.80
2017-10-15T02:11:38.098Z,12.73
2017-10-15T02:14:05.549Z,14.15
2017-10-15T02:16:33.098Z,14.25
2017-10-15T02:19:00.657Z,13.00
2017-10-15T02:21:28.134Z,12.70
2017-10-15T02:23:55.593Z,11.93
2017-10-15T02:26:23.041Z,12.50
2017-10-15T02:28:50.531Z,11.35
2017-10-15T02:31:18.751Z,11.73
2017-10-15T02:33:46.219Z,11.40
2017-10-15T02:36:13.851Z,11.88
2017-10-15T02:38:41.292Z,10.70
2017-10-15T02:41:08.802Z,11.70
2017-10-15T02:43:36.294Z,11.20
2017-10-15T02:46:04.508Z,11.07
2017-10-15T02:48:31.987Z,10.57
2017-10-15T02:50:59.554Z,10.40
2017-10-15T02:53:27.013Z,9.98
2017-10-15T02:55:54.880Z,10.98
2017-10-15T02:58:22.432Z,10.90
2017-10-15T03:00:49.881Z,10.65
2017-10-15T03:03:17.337Z,10.80
2017-10-15T03:05:44.814Z,10.48
2017-10-15T03:08:12.392Z,10.25
2017-10-15T03:10:39.921Z,11.88
2017-10-15T03:13:07.399Z,10.20
2017-10-15T03:15:34.867Z,10.63
2017-10-15T03:18:03.104Z,9.38
2017-10-15T03:20:30.549Z,9.73
2017-10-15T03:22:58.010Z,9.60
2017-10-15T03:25:25.472Z,10.02
2017-10-15T03:27:53.026Z,9.88
2017-10-15T03:30:20.461Z,9.43
2017-10-15T03:32:48.028Z,9.23
2017-10-15T03:35:15.517Z,9.40
2017-10-15T03:37:42.980Z,8.93
2017-10-15T03:40:10.419Z,8.60
2017-10-15T03:42:37.913Z,8.15
2017-10-15T03:45:07.711Z,8.60
2017-10-15T03:47:35.281Z,8.48
2017-10-15T03:50:02.828Z,9.07
2017-10-15T03:52:30.286Z,7.82
2017-10-15T03:54:57.861Z,8.90
2017-10-15T03:57:25.405Z,8.63
2017-10-15T03:59:53.014Z,8.27
2017-10-15T04:02:20.476Z,7.95
2017-10-15T04:04:48.709Z,7.50
2017-10-15T04:07:16.159Z,7.37
2017-10-15T04:09:43.629Z,7.28
2017-10-15T04:12:11.090Z,7.65
2017-10-15T04:14:39.330Z,7.68
2017-10-15T04:17:06.779Z,7.35
2017-10-15T04:19:34.235Z,6.80
2017-10-15T04:22:01.684Z,6.43
2017-10-15T04:24:29.155Z,7.35
2017-10-15T04:26:56.607Z,7.70
2017-10-15T04:29:24.095Z,7.50
2017-10-15T04:31:51.658Z,7.25
2017-10-15T04:34:19.110Z,8.00
2017-10-15T04:36:46.675Z,8.38
2017-10-15T04:39:14.213Z,7.72
2017-10-15T04:41:41.669Z,7.78
2017-10-15T04:44:09.154Z,7.82
2017-10-15T04:46:36.703Z,7.20
2017-10-15T04:49:04.260Z,7.95
2017-10-15T04:51:31.809Z,8.45
2017-10-15T04:53:59.270Z,7.20
2017-10-15T04:56:27.498Z,7.50
2017-10-15T04:58:54.937Z,7.50
2017-10-15T05:01:23.190Z,7.75
2017-10-15T05:03:50.626Z,8.32
2017-10-15T05:06:18.085Z,7.45
2017-10-15T05:08:45.544Z,8.60
2017-10-15T05:11:13.074Z,8.07
2017-10-15T05:13:40.515Z,7.62
2017-10-15T05:16:07.973Z,8.23
2017-10-15T05:18:35.438Z,9.00
2017-10-15T05:21:02.921Z,9.45
2017-10-15T05:23:30.409Z,8.25
2017-10-15T05:25:57.918Z,7.78
2017-10-15T05:28:25.405Z,8.38
2017-10-15T05:30:52.860Z,7.82
2017-10-15T05:33:20.328Z,7.00
2017-10-15T05:35:47.787Z,6.80
2017-10-15T05:38:15.482Z,9.50
2017-10-15T05:40:43.695Z,7.82
2017-10-15T05:43:11.181Z,7.65
2017-10-15T05:45:38.666Z,7.87
2017-10-15T05:48:06.890Z,7.12
2017-10-15T05:50:34.349Z,7.50
2017-10-15T05:53:01.825Z,7.35
2017-10-15T05:55:29.274Z,6.93
2017-10-15T05:57:56.737Z,7.03
2017-10-15T06:00:24.215Z,7.68
2017-10-15T06:02:51.751Z,6.87
2017-10-15T06:05:19.210Z,6.70
2017-10-15T06:07:46.841Z,6.80
2017-10-15T06:10:14.286Z,6.60
2017-10-15T06:12:41.838Z,6.85
2017-10-15T06:15:10.041Z,9.13
2017-10-15T06:17:37.509Z,5.72
2017-10-15T06:20:05.050Z,6.57
2017-10-15T06:22:32.485Z,5.55
2017-10-15T06:24:59.990Z,6.10
2017-10-15T06:27:27.444Z,6.85
2017-10-15T06:29:54.914Z,5.43
2017-10-15T06:32:22.393Z,5.55
2017-10-15T06:34:49.850Z,4.72
2017-10-15T06:37:18.114Z,4.72
2017-10-15T06:39:45.577Z,7.82
2017-10-15T06:42:13.054Z,4.57
2017-10-15T06:44:41.284Z,5.95
2017-10-15T06:47:08.733Z,4.70
2017-10-15T06:49:36.217Z,5.03
2017-10-15T06:52:03.770Z,6.18
2017-10-15T06:54:31.223Z,6.32
2017-10-15T06:56:58.674Z,5.32
2017-10-15T06:59:26.133Z,6.45
2017-10-15T07:01:53.595Z,7.30
2017-10-15T07:04:21.065Z,5.35
2017-10-15T07:06:48.517Z,5.75
2017-10-15T07:09:16.074Z,5.82
2017-10-15T07:11:43.534Z,5.68
2017-10-15T07:14:10.987Z,6.03
2017-10-15T07:16:38.550Z,6.32
2017-10-15T07:19:06.034Z,5.70
2017-10-15T07:21:34.282Z,6.05
2017-10-15T07:24:01.748Z,6.30
2017-10-15T07:26:29.197Z,5.62
2017-10-15T07:28:56.650Z,7.07
2017-10-15T07:31:24.137Z,7.15
2017-10-15T07:33:51.677Z,7.57
2017-10-15T07:36:19.238Z,6.00
2017-10-15T07:38:46.793Z,5.72
2017-10-15T07:41:14.346Z,5.35
2017-10-15T07:43:41.802Z,5.82
2017-10-15T07:46:09.366Z,5.72
2017-10-15T07:48:36.818Z,5.00
2017-10-15T07:51:04.406Z,5.60
2017-10-15T07:53:32.628Z,6.28
2017-10-15T07:56:00.085Z,5.72
2017-10-15T07:58:27.574Z,5.60
2017-10-15T08:00:55.157Z,5.20
2017-10-15T08:03:23.418Z,5.72
2017-10-15T08:05:50.890Z,5.18
2017-10-15T08:08:18.429Z,5.12
2017-10-15T08:10:45.877Z,5.20
2017-10-15T08:13:13.442Z,5.30
2017-10-15T08:15:40.893Z,5.35
2017-10-15T08:18:08.346Z,4.65
2017-10-15T08:20:35.793Z,6.60
2017-10-15T08:23:03.246Z,4.60
2017-10-15T08:25:30.709Z,4.78
2017-10-15T08:27:58.185Z,4.72
2017-10-15T08:30:25.755Z,6.18
2017-10-15T08:32:54.027Z,4.97
2017-10-15T08:35:21.483Z,4.70
2017-10-15T08:37:48.945Z,9.55
2017-10-15T08:40:16.400Z,5.68
2017-10-15T08:42:43.919Z,7.47
2017-10-15T08:45:11.373Z,6.30
2017-10-15T08:47:38.870Z,5.78
2017-10-15T08:50:06.318Z,4.55
2017-10-15T08:52:33.783Z,5.55
2017-10-15T08:55:01.339Z,6.93
2017-10-15T08:57:28.865Z,4.82
2017-10-15T08:59:56.364Z,4.37
2017-10-15T09:02:23.933Z,4.40
2017-10-15T09:04:51.394Z,4.70
2017-10-15T09:07:19.657Z,4.47
2017-10-15T09:09:47.127Z,5.03
2017-10-15T09:12:14.682Z,5.43
2017-10-15T09:14:42.158Z,5.80
2017-10-15T09:17:10.382Z,4.80
2017-10-15T09:19:37.841Z,5.50
2017-10-15T09:22:05.334Z,5.90
2017-10-15T09:24:32.898Z,6.43
2017-10-15T09:27:01.118Z,4.90
2017-10-15T09:29:28.677Z,6.30
2017-10-15T09:31:56.117Z,6.10
2017-10-15T09:34:23.574Z,4.67
2017-10-15T09:36:51.033Z,4.77
2017-10-15T09:39:18.492Z,4.83
2017-10-15T09:41:45.946Z,4.37
2017-10-15T09:44:13.450Z,5.90
2017-10-15T09:46:40.923Z,3.70
2017-10-15T09:49:08.481Z,4.20
2017-10-15T09:51:35.929Z,4.00
2017-10-15T09:54:03.497Z,3.80
2017-10-15T09:56:30.966Z,4.23
2017-10-15T09:58:58.505Z,4.27
2017-10-15T10:01:25.961Z,4.87
2017-10-15T10:03:53.419Z,4.30
2017-10-15T10:06:20.974Z,4.10
2017-10-15T10:08:48.435Z,3.77
2017-10-15T10:11:16.009Z,5.00
2017-10-15T10:13:43.559Z,4.40
2017-10-15T10:16:11.021Z,3.90
2017-10-15T10:18:38.470Z,3.80
2017-10-15T10:21:05.933Z,4.00
2017-10-15T10:23:33.393Z,4.70
2017-10-15T10:26:01.055Z,4.57
2017-10-15T10:28:28.505Z,4.53
2017-10-15T10:30:55.974Z,4.00
2017-10-15T10:33:23.422Z,3.90
2017-10-15T10:35:50.873Z,4.17
2017-10-15T10:38:18.434Z,3.87
2017-10-15T10:40:45.892Z,4.40
2017-10-15T10:43:13.348Z,3.83
2017-10-15T10:45:40.874Z,3.90
2017-10-15T10:48:08.366Z,4.30
2017-10-15T10:50:35.830Z,3.90
2017-10-15T10:53:03.285Z,4.43
2017-10-15T10:55:30.838Z,4.47
2017-10-15T10:57:58.306Z,4.63
2017-10-15T11:00:25.863Z,4.40
2017-10-15T11:02:53.426Z,4.23
2017-10-15T11:05:20.870Z,3.90
2017-10-15T11:07:48.434Z,4.03
2017-10-15T11:10:16.102Z,4.27
2017-10-15T11:12:43.570Z,4.70
2017-10-15T11:15:11.013Z,4.20
2017-10-15T11:17:38.534Z,3.80
2017-10-15T11:20:06.010Z,4.00
2017-10-15T11:22:33.471Z,3.93
2017-10-15T11:25:00.922Z,4.30
2017-10-15T11:27:28.465Z,4.40
2017-10-15T11:29:55.923Z,3.90
2017-10-15T11:32:23.398Z,4.00
2017-10-15T11:34:50.857Z,3.97
2017-10-15T11:37:18.330Z,4.03
2017-10-15T11:39:45.890Z,4.07
2017-10-15T11:42:13.346Z,4.87
2017-10-15T11:44:40.906Z,4.20
2017-10-15T11:47:08.384Z,4.40
2017-10-15T11:49:36.605Z,4.33
2017-10-15T11:52:04.098Z,4.20
2017-10-15T11:54:31.658Z,3.83
2017-10-15T11:56:59.114Z,4.60
2017-10-15T11:59:26.637Z,4.50
2017-10-15T12:01:54.102Z,4.70
2017-10-15T12:04:21.547Z,4.03
2017-10-15T12:06:49.111Z,4.60
2017-10-15T12:09:16.669Z,4.23
2017-10-15T12:11:44.165Z,3.87
2017-10-15T12:14:11.659Z,4.87
2017-10-15T12:16:39.903Z,4.60
2017-10-15T12:19:07.369Z,4.20
2017-10-15T12:21:34.825Z,4.50
2017-10-15T12:24:02.289Z,5.60
2017-10-15T12:26:29.851Z,5.40
2017-10-15T12:28:58.126Z,4.40
2017-10-15T12:31:25.669Z,4.60
2017-10-15T12:33:53.125Z,3.80
2017-10-15T12:36:20.586Z,3.57
2017-10-15T12:38:48.101Z,3.90
2017-10-15T12:41:15.543Z,4.73
2017-10-15T12:43:42.998Z,4.80
2017-10-15T12:46:10.462Z,4.57
2017-10-15T12:48:37.909Z,4.67
2017-10-15T12:51:05.388Z,4.97
2017-10-15T12:53:32.826Z,4.70
2017-10-15T12:56:00.286Z,4.40
2017-10-15T12:58:27.772Z,4.20
2017-10-15T13:00:55.231Z,4.60
2017-10-15T13:03:22.792Z,4.53
2017-10-15T13:05:50.343Z,4.40
2017-10-15T13:08:17.834Z,4.30
2017-10-15T13:10:45.358Z,5.00
2017-10-15T13:13:12.854Z,5.60
2017-10-15T13:15:41.167Z,4.53
2017-10-15T13:18:09.389Z,5.63
2017-10-15T13:20:36.861Z,5.73
2017-10-15T13:23:04.319Z,5.00
2017-10-15T13:25:31.778Z,4.83
2017-10-15T13:27:59.242Z,5.60
2017-10-15T13:30:26.693Z,4.87
2017-10-15T13:32:54.254Z,4.33
2017-10-15T13:35:21.768Z,4.90
2017-10-15T13:37:49.219Z,4.83
2017-10-15T13:40:16.670Z,4.60
2017-10-15T13:42:44.122Z,4.73
2017-10-15T13:45:11.682Z,4.47
2017-10-15T13:47:39.136Z,5.17
2017-10-15T13:50:06.656Z,6.00
2017-10-15T13:52:34.215Z,5.27
2017-10-15T13:55:01.690Z,4.90
2017-10-15T13:57:29.145Z,5.10
2017-10-15T13:59:57.383Z,5.07
2017-10-15T14:02:24.844Z,4.60
2017-10-15T14:04:52.297Z,4.57
2017-10-15T14:07:19.754Z,5.20
2017-10-15T14:09:47.233Z,4.97
2017-10-15T14:12:14.682Z,4.30
2017-10-15T14:14:42.965Z,4.73
2017-10-15T14:17:10.425Z,4.67
2017-10-15T14:19:37.976Z,5.30
2017-10-15T14:22:05.551Z,5.00
2017-10-15T14:24:33.166Z,5.03
2017-10-15T14:27:00.626Z,4.70
2017-10-15T14:29:28.083Z,3.90
2017-10-15T14:31:55.550Z,4.50
2017-10-15T14:34:23.041Z,4.00
2017-10-15T14:36:50.505Z,3.73
2017-10-15T14:39:18.052Z,4.07
2017-10-15T14:41:45.529Z,4.00
2017-10-15T14:44:13.777Z,3.73
2017-10-15T14:46:41.250Z,4.13
2017-10-15T14:49:10.221Z,3.80
2017-10-15T14:51:37.757Z,3.90
2017-10-15T14:54:05.212Z,4.23
2017-10-15T14:56:32.670Z,3.83
2017-10-15T14:59:00.231Z,3.30
2017-10-15T15:01:27.684Z,4.33
2017-10-15T15:03:55.133Z,4.60
2017-10-15T15:06:22.644Z,4.00
2017-10-15T15:08:50.102Z,4.40
2017-10-15T15:11:17.560Z,3.30
2017-10-15T15:13:45.031Z,3.33
2017-10-15T15:16:13.285Z,3.67
2017-10-15T15:18:40.758Z,4.20
2017-10-15T15:21:08.305Z,3.40
2017-10-15T15:23:35.825Z,4.00
2017-10-15T15:26:03.271Z,4.20
2017-10-15T15:28:30.865Z,4.00
2017-10-15T15:30:58.330Z,3.80
2017-10-15T15:33:25.789Z,3.50
2017-10-15T15:35:53.258Z,4.40
2017-10-15T15:38:20.739Z,3.77
2017-10-15T15:40:49.049Z,4.37
2017-10-15T15:43:16.608Z,4.00
2017-10-15T15:45:44.060Z,4.27
2017-10-15T15:48:11.520Z,3.87
2017-10-15T15:50:39.084Z,4.30
2017-10-15T15:53:06.535Z,4.63
2017-10-15T15:55:33.984Z,4.30
2017-10-15T15:58:01.433Z,5.10
2017-10-15T16:00:28.947Z,4.50
2017-10-15T16:02:56.394Z,4.50
2017-10-15T16:05:23.928Z,4.43
2017-10-15T16:07:51.385Z,5.80
2017-10-15T16:10:18.832Z,5.47
2017-10-15T16:12:46.279Z,6.13
2017-10-15T16:15:13.775Z,4.80
2017-10-15T16:17:41.224Z,5.80
2017-10-15T16:20:08.681Z,5.90
2017-10-15T16:22:36.169Z,5.70
2017-10-15T16:25:03.626Z,6.63
2017-10-15T16:27:32.614Z,6.10
2017-10-15T16:30:00.081Z,6.10
2017-10-15T16:32:27.630Z,6.53
2017-10-15T16:34:55.082Z,6.00
2017-10-15T16:37:22.717Z,6.60
2017-10-15T16:39:50.202Z,7.10
2017-10-15T16:42:17.666Z,7.80
2017-10-15T16:44:45.128Z,7.30
2017-10-15T16:47:12.581Z,6.97
2017-10-15T16:49:40.054Z,6.63
2017-10-15T16:52:08.302Z,6.60
2017-10-15T16:54:40.692Z,6.97
2017-10-15T16:57:08.154Z,7.10
2017-10-15T16:59:35.610Z,7.30
2017-10-15T17:02:03.066Z,7.73
2017-10-15T17:04:30.659Z,8.33
2017-10-15T17:06:58.125Z,9.00
2017-10-15T17:09:25.598Z,8.50
2017-10-15T17:11:53.157Z,9.52
2017-10-15T17:14:20.613Z,8.85
2017-10-15T17:16:48.175Z,8.90
2017-10-15T17:19:15.634Z,9.80
2017-10-15T17:21:43.148Z,9.90
2017-10-15T17:24:11.417Z,10.02
2017-10-15T17:26:38.939Z,10.63
2017-10-15T17:29:06.424Z,12.15
2017-10-15T17:31:33.981Z,10.05
2017-10-15T17:34:01.444Z,11.70
2017-10-15T17:36:28.919Z,11.02
2017-10-15T17:38:57.152Z,11.23
2017-10-15T17:41:24.619Z,20.17
2017-10-15T17:43:52.092Z,13.38
2017-10-15T17:46:19.560Z,12.68
2017-10-15T17:48:47.818Z,12.50
2017-10-15T17:51:15.373Z,10.70
2017-10-15T17:53:43.001Z,10.50
2017-10-15T17:56:10.458Z,11.65
2017-10-15T17:58:37.925Z,12.20
2017-10-15T18:01:05.402Z,14.07
2017-10-15T18:03:32.859Z,9.40
2017-10-15T18:06:00.327Z,11.15
2017-10-15T18:08:28.870Z,9.85
2017-10-15T18:10:56.395Z,9.95
2017-10-15T18:13:24.749Z,8.77
2017-10-15T18:15:52.311Z,8.73
2017-10-15T18:18:19.772Z,8.60
2017-10-15T18:20:47.316Z,9.95
2017-10-15T18:23:14.829Z,9.57
2017-10-15T18:25:42.285Z,9.77
2017-10-15T18:28:09.741Z,8.88
2017-10-15T18:30:37.214Z,8.48
2017-10-15T18:33:04.690Z,13.27
2017-10-15T18:35:32.261Z,9.40
2017-10-15T18:37:59.790Z,8.10
2017-10-15T18:40:27.247Z,8.88
2017-10-15T18:42:54.710Z,8.50
2017-10-15T18:45:22.264Z,8.75
2017-10-15T18:47:49.780Z,8.35
2017-10-15T18:50:18.101Z,7.47
2017-10-15T18:52:45.540Z,9.13
2017-10-15T18:55:13.009Z,8.48
2017-10-15T18:57:40.522Z,8.95
2017-10-15T19:00:08.106Z,7.53
2017-10-15T19:02:36.342Z,8.95
2017-10-15T19:05:03.918Z,8.80
2017-10-15T19:07:31.379Z,8.63
2017-10-15T19:09:58.853Z,8.88
2017-10-15T19:12:27.105Z,8.18
2017-10-15T19:14:54.574Z,9.10
2017-10-15T19:17:22.027Z,9.10
2017-10-15T19:19:49.601Z,8.50
2017-10-15T19:22:17.848Z,9.10
2017-10-15T19:24:45.405Z,8.27
2017-10-15T19:27:12.900Z,8.23
2017-10-15T19:29:41.132Z,8.57
2017-10-15T19:32:08.595Z,10.00
2017-10-15T19:34:36.065Z,10.18
2017-10-15T19:37:03.616Z,9.80
2017-10-15T19:39:31.074Z,10.30
2017-10-15T19:41:58.634Z,9.90
2017-10-15T19:44:26.190Z,10.15
2017-10-15T19:46:53.661Z,9.82
2017-10-15T19:49:21.138Z,10.15
2017-10-15T19:51:49.379Z,10.00
2017-10-15T19:54:16.837Z,8.60
2017-10-15T19:56:44.461Z,10.40
2017-10-15T19:59:11.926Z,10.27
2017-10-15T20:01:39.403Z,9.75
2017-10-15T20:04:06.866Z,16.40
2017-10-15T20:06:34.434Z,27.62
2017-10-15T20:09:02.151Z,14.45
2017-10-15T20:11:30.017Z,9.63
2017-10-15T20:13:57.517Z,9.88
2017-10-15T20:16:24.977Z,9.45
2017-10-15T20:18:52.437Z,10.38
2017-10-15T20:21:19.957Z,11.10
2017-10-15T20:23:47.422Z,10.65
2017-10-15T20:26:14.875Z,10.82
2017-10-15T20:28:42.429Z,11.00
2017-10-15T20:31:09.878Z,10.07
2017-10-15T20:33:37.338Z,9.30
2017-10-15T20:36:04.902Z,10.88
2017-10-15T20:38:32.418Z,10.73
2017-10-15T20:40:59.875Z,9.25
2017-10-15T20:43:27.329Z,8.80
2017-10-15T20:45:54.794Z,8.88
2017-10-15T20:48:23.022Z,10.60
2017-10-15T20:50:50.520Z,10.75
2017-10-15T20:53:18.074Z,8.77
2017-10-15T20:55:45.537Z,9.00
2017-10-15T20:58:13.093Z,8.75
2017-10-15T21:00:40.553Z,21.73
2017-10-15T21:03:08.018Z,27.45
2017-10-15T21:05:36.335Z,10.25
2017-10-15T21:08:03.792Z,10.00
2017-10-15T21:10:31.251Z,43.75
2017-10-15T21:12:58.745Z,11.80
2017-10-15T21:15:26.306Z,10.05
2017-10-15T21:17:53.861Z,10.52
2017-10-15T21:20:22.138Z,9.73
2017-10-15T21:22:49.609Z,14.27
2017-10-15T21:25:17.074Z,9.48
2017-10-15T21:27:44.628Z,8.82
2017-10-15T21:30:12.200Z,10.40
2017-10-15T21:32:40.453Z,9.40
2017-10-15T21:35:07.927Z,56.22
2017-10-15T21:37:35.476Z,9.82
2017-10-15T21:40:03.720Z,12.48
2017-10-15T21:42:31.266Z,10.05
2017-10-15T21:44:58.715Z,18.05
2017-10-15T21:47:26.292Z,14.32
2017-10-15T21:49:53.810Z,13.18
2017-10-15T21:52:22.119Z,15.65
2017-10-15T21:54:49.623Z,11.43
2017-10-15T21:57:17.194Z,9.93
2017-10-15T21:59:45.518Z,15.52
2017-10-15T22:02:12.989Z,12.45
2017-10-15T22:04:40.541Z,10.85
2017-10-15T22:07:08.052Z,10.40
2017-10-15T22:09:35.502Z,20.98
2017-10-15T22:12:03.762Z,8.65
2017-10-15T22:14:31.243Z,8.15
2017-10-15T22:16:59.486Z,8.50
2017-10-15T22:19:27.073Z,9.00
2017-10-15T22:22:00.137Z,8.23
2017-10-15T22:24:27.701Z,12.57
2017-10-15T22:26:55.174Z,11.07
2017-10-15T22:29:22.642Z,10.60
2017-10-15T22:31:50.871Z,9.00
2017-10-15T22:34:18.331Z,9.13
2017-10-15T22:36:45.781Z,9.13
2017-10-15T22:39:13.248Z,8.75
2017-10-15T22:41:40.722Z,9.35
2017-10-15T22:44:08.241Z,12.85
2017-10-15T22:46:35.697Z,9.10
2017-10-15T22:49:03.194Z,11.27
2017-10-15T22:51:30.759Z,11.90
2017-10-15T22:53:58.277Z,10.23
2017-10-15T22:56:25.741Z,11.60
2017-10-15T22:58:53.218Z,8.32
2017-10-15T23:01:20.682Z,8.23
2017-10-15T23:03:48.134Z,6.90
2017-10-15T23:06:15.694Z,7.00
2017-10-15T23:08:43.153Z,7.12
2017-10-15T23:11:10.618Z,7.95
2017-10-15T23:13:38.239Z,7.60
2017-10-15T23:16:05.768Z,6.30
2017-10-15T23:18:33.998Z,7.32
2017-10-15T23:21:01.462Z,5.78
2017-10-15T23:23:29.018Z,6.87
2017-10-15T23:25:56.498Z,7.37
2017-10-15T23:28:24.103Z,6.40
2017-10-15T23:30:51.568Z,6.45
2017-10-15T23:33:19.022Z,7.43
2017-10-15T23:35:46.539Z,5.85
2017-10-15T23:38:13.997Z,5.43
2017-10-15T23:40:41.468Z,4.93
2017-10-15T23:43:09.773Z,5.50
2017-10-15T23:45:37.217Z,6.03
2017-10-15T23:48:04.757Z,5.50
2017-10-15T23:50:33.005Z,5.60
2017-10-15T23:53:00.563Z,6.30
2017-10-15T23:55:28.012Z,5.40
2017-10-15T23:57:55.541Z,6.72
